createdAt,value
2022-12-14T00:02:28.243Z,33.53
2022-12-14T00:04:56.579Z,33.88
2022-12-14T00:07:25.073Z,34.18
2022-12-14T00:09:53.244Z,33.87
2022-12-14T00:12:21.619Z,33.85
2022-12-14T00:14:50.036Z,34.11
2022-12-14T00:17:18.559Z,34.21
2022-12-14T00:19:48.944Z,34.24
2022-12-14T00:22:17.550Z,33.96
2022-12-14T00:24:45.805Z,34.29
2022-12-14T00:27:14.425Z,34.27
2022-12-14T00:29:42.696Z,34.62
2022-12-14T00:32:11.152Z,34.40
2022-12-14T00:34:39.378Z,34.01
2022-12-14T00:37:09.268Z,34.29
2022-12-14T00:39:37.668Z,34.14
2022-12-14T00:42:07.782Z,34.21
2022-12-14T00:44:36.016Z,33.99
2022-12-14T00:47:04.500Z,34.07
2022-12-14T00:49:32.698Z,34.10
2022-12-14T00:52:01.198Z,34.22
2022-12-14T00:54:30.808Z,34.55
2022-12-14T00:56:59.315Z,34.80
2022-12-14T00:59:27.673Z,34.56
2022-12-14T01:01:56.204Z,34.72
2022-12-14T01:04:24.770Z,34.72
2022-12-14T01:06:54.876Z,34.43
2022-12-14T01:09:24.735Z,34.69
2022-12-14T01:11:54.681Z,34.55
2022-12-14T01:14:23.749Z,34.51
2022-12-14T01:16:52.277Z,34.39
2022-12-14T01:19:20.464Z,35.10
2022-12-14T01:21:48.884Z,34.94
2022-12-14T01:24:17.028Z,34.77
2022-12-14T01:26:45.544Z,34.65
2022-12-14T01:29:16.322Z,34.38
2022-12-14T01:31:44.515Z,33.67
2022-12-14T01:34:17.394Z,34.49
2022-12-14T01:36:45.938Z,34.49
2022-12-14T01:39:15.683Z,34.19
2022-12-14T01:41:45.423Z,34.32
2022-12-14T01:44:52.681Z,33.69
2022-12-14T01:47:29.793Z,34.22
2022-12-14T01:50:01.351Z,34.48
2022-12-14T01:52:35.216Z,34.71
2022-12-14T01:55:05.840Z,34.29
2022-12-14T01:57:37.202Z,34.39
2022-12-14T02:00:10.142Z,34.57
2022-12-14T02:02:39.720Z,35.03
2022-12-14T02:05:09.720Z,34.81
2022-12-14T02:07:38.805Z,34.96
2022-12-14T02:10:08.177Z,34.54
2022-12-14T02:12:39.885Z,34.80
2022-12-14T02:15:10.424Z,34.67
2022-12-14T02:17:39.642Z,34.64
2022-12-14T02:20:08.703Z,34.16
2022-12-14T02:23:02.530Z,33.63
2022-12-14T02:25:56.691Z,34.00
2022-12-14T02:28:44.223Z,34.32
2022-12-14T02:31:17.322Z,34.10
2022-12-14T02:33:51.123Z,34.16
2022-12-14T02:36:23.877Z,34.39
2022-12-14T02:38:58.840Z,34.56
2022-12-14T02:41:38.447Z,34.42
2022-12-14T02:44:17.555Z,34.50
2022-12-14T02:46:51.576Z,34.06
2022-12-14T02:49:31.146Z,34.66
2022-12-14T02:52:04.567Z,35.47
2022-12-14T02:54:39.444Z,35.21
2022-12-14T02:57:11.941Z,35.36
2022-12-14T02:59:40.929Z,35.62
2022-12-14T03:02:12.161Z,35.61
2022-12-14T03:04:46.074Z,35.37
2022-12-14T03:07:32.585Z,35.26
2022-12-14T03:10:05.823Z,35.39
2022-12-14T03:12:34.967Z,35.50
2022-12-14T03:15:04.952Z,35.33
2022-12-14T03:17:35.371Z,35.50
2022-12-14T03:20:07.187Z,35.81
2022-12-14T03:22:43.223Z,35.29
2022-12-14T03:25:15.141Z,35.40
2022-12-14T03:27:47.571Z,34.96
2022-12-14T03:30:31.705Z,35.17
2022-12-14T03:33:10.784Z,35.22
2022-12-14T03:35:43.573Z,36.00
2022-12-14T03:38:17.528Z,35.60
2022-12-14T03:40:52.848Z,35.49
2022-12-14T03:43:28.810Z,35.31
2022-12-14T03:46:02.008Z,35.46
2022-12-14T03:48:34.060Z,35.79
2022-12-14T03:51:09.340Z,35.35
2022-12-14T03:53:41.856Z,36.45
2022-12-14T03:56:14.246Z,36.27
2022-12-14T03:58:51.205Z,36.23
2022-12-14T04:01:31.275Z,36.44
2022-12-14T04:04:04.991Z,36.08
2022-12-14T04:06:38.716Z,35.96
2022-12-14T04:09:17.621Z,35.98
2022-12-14T04:12:08.238Z,35.83
2022-12-14T04:14:56.565Z,36.24
2022-12-14T04:17:46.239Z,35.95
2022-12-14T04:20:18.539Z,36.15
2022-12-14T04:22:49.782Z,35.75
2022-12-14T04:25:39.988Z,35.91
2022-12-14T04:28:32.303Z,35.71
2022-12-14T04:31:02.422Z,35.96
2022-12-14T04:33:49.633Z,36.44
2022-12-14T04:36:23.783Z,35.54
2022-12-14T04:38:56.154Z,36.29
2022-12-14T04:41:26.259Z,35.92
2022-12-14T04:43:57.344Z,35.77
2022-12-14T04:46:27.418Z,36.70
2022-12-14T04:49:00.232Z,36.23
2022-12-14T04:51:33.137Z,36.20
2022-12-14T04:54:05.920Z,36.28
2022-12-14T04:56:36.232Z,36.02
2022-12-14T04:59:04.814Z,35.73
2022-12-14T05:01:44.900Z,35.29
2022-12-14T05:04:25.498Z,34.98
2022-12-14T05:07:04.220Z,35.21
2022-12-14T05:09:34.200Z,35.52
2022-12-14T05:12:06.116Z,35.68
2022-12-14T05:14:38.909Z,35.24
2022-12-14T05:17:09.101Z,35.21
2022-12-14T05:19:38.594Z,35.99
2022-12-14T05:22:09.341Z,35.54
2022-12-14T05:24:37.675Z,34.25
2022-12-14T05:27:06.270Z,35.32
2022-12-14T05:29:34.689Z,35.56
2022-12-14T05:32:03.078Z,35.24
2022-12-14T05:34:31.847Z,35.78
2022-12-14T05:37:00.112Z,35.30
2022-12-14T05:39:29.984Z,35.38
2022-12-14T05:41:58.276Z,35.44
2022-12-14T05:44:26.722Z,35.45
2022-12-14T05:46:56.159Z,35.67
2022-12-14T05:49:25.340Z,36.10
2022-12-14T05:51:53.587Z,35.71
2022-12-14T05:54:22.059Z,35.66
2022-12-14T05:56:51.624Z,36.66
2022-12-14T05:59:20.140Z,35.73
2022-12-14T06:01:50.622Z,35.90
2022-12-14T06:04:19.571Z,34.93
2022-12-14T06:06:48.247Z,36.01
2022-12-14T06:09:17.722Z,35.88
2022-12-14T06:11:46.814Z,35.89
2022-12-14T06:14:17.249Z,35.21
2022-12-14T06:16:49.192Z,35.45
2022-12-14T06:19:17.692Z,35.57
2022-12-14T06:21:46.100Z,35.34
2022-12-14T06:24:14.991Z,35.54
2022-12-14T06:26:43.358Z,35.79
2022-12-14T06:29:18.075Z,35.25
2022-12-14T06:31:49.348Z,35.43
2022-12-14T06:34:19.199Z,35.54
2022-12-14T06:36:48.661Z,35.48
2022-12-14T06:39:18.348Z,35.43
2022-12-14T06:41:50.849Z,35.21
2022-12-14T06:44:20.889Z,35.30
2022-12-14T06:46:49.151Z,35.12
2022-12-14T06:49:17.966Z,34.70
2022-12-14T06:51:46.280Z,34.96
2022-12-14T06:54:15.604Z,34.81
2022-12-14T06:56:44.796Z,34.69
2022-12-14T06:59:13.970Z,35.40
2022-12-14T07:01:44.265Z,35.66
2022-12-14T07:04:15.161Z,35.67
2022-12-14T07:06:43.308Z,36.04
2022-12-14T07:09:14.723Z,35.60
2022-12-14T07:11:42.667Z,35.07
2022-12-14T07:14:15.664Z,35.72
2022-12-14T07:16:48.249Z,35.72
2022-12-14T07:19:18.680Z,35.21
2022-12-14T07:21:46.920Z,36.16
2022-12-14T07:24:15.807Z,36.02
2022-12-14T07:26:44.007Z,35.87
2022-12-14T07:29:14.829Z,35.79
2022-12-14T07:31:43.188Z,36.36
2022-12-14T07:34:14.581Z,35.50
2022-12-14T07:36:43.429Z,34.74
2022-12-14T07:39:13.717Z,35.33
2022-12-14T07:41:42.124Z,35.59
2022-12-14T07:44:10.918Z,36.64
2022-12-14T07:46:39.346Z,36.29
2022-12-14T07:49:08.491Z,36.15
2022-12-14T07:51:41.207Z,35.56
2022-12-14T07:54:10.001Z,35.24
2022-12-14T07:56:41.244Z,35.38
2022-12-14T07:59:14.610Z,34.98
2022-12-14T08:01:43.992Z,35.80
2022-12-14T08:04:14.204Z,35.97
2022-12-14T08:06:44.160Z,35.90
2022-12-14T08:09:13.028Z,35.85
2022-12-14T08:11:41.319Z,35.85
2022-12-14T08:14:13.631Z,35.75
2022-12-14T08:16:41.920Z,34.57
2022-12-14T08:19:11.733Z,34.43
2022-12-14T08:21:40.561Z,33.82
2022-12-14T08:24:11.914Z,33.28
2022-12-14T08:26:42.910Z,32.81
2022-12-14T08:29:17.923Z,32.97
2022-12-14T08:31:48.386Z,32.34
2022-12-14T08:34:22.159Z,31.58
2022-12-14T08:36:50.615Z,31.38
2022-12-14T08:39:20.471Z,31.94
2022-12-14T08:41:48.857Z,31.27
2022-12-14T08:44:18.817Z,30.84
2022-12-14T08:46:47.862Z,30.15
2022-12-14T08:49:16.648Z,30.04
2022-12-14T08:51:44.746Z,29.84
2022-12-14T08:54:13.159Z,29.97
2022-12-14T08:56:42.929Z,29.67
2022-12-14T08:59:29.959Z,29.64
2022-12-14T09:02:00.112Z,29.60
2022-12-14T09:04:28.960Z,29.67
2022-12-14T09:06:57.647Z,29.86
2022-12-14T09:09:26.116Z,29.63
2022-12-14T09:11:55.675Z,29.24
2022-12-14T09:14:24.190Z,28.86
2022-12-14T09:16:52.595Z,29.07
2022-12-14T09:19:21.225Z,28.76
2022-12-14T09:21:49.694Z,28.45
2022-12-14T09:24:18.251Z,28.59
2022-12-14T09:26:47.030Z,28.15
2022-12-14T09:29:18.731Z,27.91
2022-12-14T09:31:47.007Z,26.73
2022-12-14T09:34:15.601Z,27.87
2022-12-14T09:36:43.874Z,27.45
2022-12-14T09:39:15.073Z,27.72
2022-12-14T09:42:00.594Z,27.63
2022-12-14T09:44:41.119Z,27.51
2022-12-14T09:47:13.686Z,27.67
2022-12-14T09:49:44.176Z,27.83
2022-12-14T09:52:17.074Z,27.76
2022-12-14T09:54:49.780Z,28.44
2022-12-14T09:57:24.819Z,27.69
2022-12-14T09:59:55.752Z,27.84
2022-12-14T10:02:32.496Z,27.30
2022-12-14T10:05:11.403Z,27.31
2022-12-14T10:07:43.319Z,27.72
2022-12-14T10:10:20.562Z,27.62
2022-12-14T10:12:57.793Z,28.03
2022-12-14T10:15:30.007Z,28.34
2022-12-14T10:18:27.424Z,27.68
2022-12-14T10:21:03.425Z,28.33
2022-12-14T10:23:32.046Z,28.19
2022-12-14T10:26:07.643Z,27.71
2022-12-14T10:28:44.479Z,27.89
2022-12-14T10:31:15.738Z,27.55
2022-12-14T10:33:45.949Z,27.58
2022-12-14T10:36:21.291Z,26.75
2022-12-14T10:38:54.718Z,26.40
2022-12-14T10:41:29.397Z,26.20
2022-12-14T10:44:01.345Z,25.15
2022-12-14T10:46:40.963Z,25.37
2022-12-14T10:49:15.359Z,25.54
2022-12-14T10:51:47.091Z,26.04
2022-12-14T10:54:24.166Z,25.78
2022-12-14T10:56:52.786Z,26.16
2022-12-14T10:59:39.772Z,26.34
2022-12-14T11:02:17.483Z,26.97
2022-12-14T11:04:49.948Z,27.16
2022-12-14T11:07:20.152Z,27.43
2022-12-14T11:09:48.430Z,27.65
2022-12-14T11:12:23.357Z,27.81
2022-12-14T11:14:57.007Z,27.87
2022-12-14T11:17:35.507Z,28.01
2022-12-14T11:20:18.984Z,27.82
2022-12-14T11:22:49.462Z,28.60
2022-12-14T11:25:29.335Z,28.69
2022-12-14T11:27:58.334Z,29.22
2022-12-14T11:30:26.598Z,28.91
2022-12-14T11:32:56.624Z,29.40
2022-12-14T11:35:24.886Z,29.65
2022-12-14T11:37:59.811Z,29.42
2022-12-14T11:40:28.929Z,30.03
2022-12-14T11:43:03.018Z,30.25
2022-12-14T11:45:33.649Z,31.10
2022-12-14T11:48:20.960Z,30.20
2022-12-14T11:50:51.028Z,30.59
2022-12-14T11:53:21.280Z,30.53
2022-12-14T11:55:53.999Z,31.42
2022-12-14T11:58:25.250Z,31.27
2022-12-14T12:00:58.580Z,31.61
2022-12-14T12:03:33.817Z,31.48
2022-12-14T12:06:04.831Z,32.21
2022-12-14T12:08:34.748Z,30.98
2022-12-14T12:11:05.991Z,32.13
2022-12-14T12:13:39.470Z,32.07
2022-12-14T12:16:14.355Z,31.78
2022-12-14T12:18:48.021Z,31.75
2022-12-14T12:21:18.659Z,31.19
2022-12-14T12:23:54.804Z,30.80
2022-12-14T12:26:28.155Z,30.68
2022-12-14T12:29:00.937Z,30.74
2022-12-14T12:31:33.996Z,30.33
2022-12-14T12:34:06.418Z,30.64
2022-12-14T12:36:34.646Z,31.26
2022-12-14T12:39:06.134Z,30.69
2022-12-14T12:41:41.659Z,31.20
2022-12-14T12:44:25.601Z,30.31
2022-12-14T12:47:24.000Z,30.58
2022-12-14T12:49:51.481Z,30.57
2022-12-14T12:52:23.452Z,30.89
2022-12-14T12:54:57.407Z,30.59
2022-12-14T12:57:27.206Z,31.31
2022-12-14T12:59:57.264Z,31.53
2022-12-14T13:02:31.378Z,30.94
2022-12-14T13:05:22.355Z,31.22
2022-12-14T13:07:54.308Z,32.31
2022-12-14T13:10:24.990Z,32.10
2022-12-14T13:12:55.819Z,32.09
2022-12-14T13:15:27.532Z,32.09
2022-12-14T13:17:59.246Z,31.68
2022-12-14T13:20:32.078Z,31.49
2022-12-14T13:23:15.159Z,31.72
2022-12-14T13:25:54.740Z,31.84
2022-12-14T13:28:33.368Z,31.97
2022-12-14T13:31:12.446Z,31.84
2022-12-14T13:33:56.778Z,32.23
2022-12-14T13:36:37.593Z,32.44
2022-12-14T13:39:21.078Z,33.03
2022-12-14T13:41:52.630Z,33.50
2022-12-14T13:44:38.602Z,32.45
2022-12-14T13:47:15.473Z,34.01
2022-12-14T13:50:18.510Z,33.92
2022-12-14T13:52:44.065Z,33.56
2022-12-14T13:55:26.746Z,33.67
2022-12-14T13:57:56.115Z,34.66
2022-12-14T14:00:57.455Z,33.20
2022-12-14T14:03:54.497Z,33.26
2022-12-14T14:06:35.804Z,33.87
2022-12-14T14:09:41.877Z,33.21
2022-12-14T14:12:46.628Z,33.01
2022-12-14T14:16:26.980Z,32.97
2022-12-14T14:18:49.238Z,33.88
2022-12-14T14:21:38.868Z,33.38
2022-12-14T14:24:22.770Z,34.21
2022-12-14T14:27:02.487Z,34.17
2022-12-14T14:29:31.252Z,34.36
2022-12-14T14:32:02.604Z,34.72
2022-12-14T14:34:49.890Z,34.48
2022-12-14T14:37:32.852Z,34.34
2022-12-14T14:40:29.508Z,34.57
2022-12-14T14:43:08.260Z,35.08
2022-12-14T14:45:41.966Z,35.05
2022-12-14T14:48:22.877Z,35.25
2022-12-14T14:51:03.489Z,35.47
2022-12-14T14:53:33.644Z,35.81
2022-12-14T14:56:27.278Z,37.05
2022-12-14T14:59:34.191Z,35.68
2022-12-14T15:02:05.208Z,36.13
2022-12-14T15:04:41.886Z,36.80
2022-12-14T15:07:15.390Z,37.00
2022-12-14T15:09:47.413Z,38.25
2022-12-14T15:12:25.239Z,37.48
2022-12-14T15:14:55.782Z,38.28
2022-12-14T15:17:25.214Z,39.08
2022-12-14T15:19:55.842Z,38.65
2022-12-14T15:22:26.255Z,38.46
2022-12-14T15:24:57.078Z,37.95
2022-12-14T15:27:28.475Z,38.15
2022-12-14T15:30:00.650Z,38.53
2022-12-14T15:32:29.049Z,38.02
2022-12-14T15:35:00.516Z,38.15
2022-12-14T15:37:33.400Z,38.84
2022-12-14T15:40:05.333Z,39.00
2022-12-14T15:42:33.587Z,38.83
2022-12-14T15:45:11.540Z,39.98
2022-12-14T15:47:39.723Z,41.94
2022-12-14T15:50:23.855Z,39.99
2022-12-14T15:52:52.659Z,40.03
2022-12-14T15:55:35.411Z,38.93
2022-12-14T15:58:09.029Z,38.48
2022-12-14T16:00:42.717Z,39.01
2022-12-14T16:03:19.047Z,38.72
2022-12-14T16:05:50.090Z,38.95
2022-12-14T16:08:18.732Z,39.54
2022-12-14T16:10:48.512Z,39.57
2022-12-14T16:13:22.269Z,39.23
2022-12-14T16:15:51.986Z,38.97
2022-12-14T16:18:21.334Z,38.64
2022-12-14T16:20:59.745Z,38.04
2022-12-14T16:23:31.469Z,39.30
2022-12-14T16:26:03.101Z,39.46
2022-12-14T16:28:33.204Z,38.94
2022-12-14T16:31:03.831Z,39.73
2022-12-14T16:33:34.872Z,38.95
2022-12-14T16:36:07.152Z,38.55
2022-12-14T16:38:40.921Z,38.20
2022-12-14T16:41:10.041Z,38.22
2022-12-14T16:43:39.795Z,38.64
2022-12-14T16:46:15.840Z,38.32
2022-12-14T16:49:18.163Z,38.55
2022-12-14T16:54:37.034Z,38.89
2022-12-14T16:57:07.317Z,39.39
2022-12-14T16:59:41.100Z,38.79
2022-12-14T17:02:26.907Z,38.21
2022-12-14T17:04:55.954Z,39.17
2022-12-14T17:07:29.530Z,38.08
2022-12-14T17:09:57.826Z,38.84
2022-12-14T17:12:27.378Z,38.50
2022-12-14T17:14:55.776Z,38.17
2022-12-14T17:17:30.910Z,38.38
2022-12-14T17:20:00.607Z,38.54
2022-12-14T17:22:34.071Z,38.75
2022-12-14T17:25:02.780Z,38.90
2022-12-14T17:27:33.590Z,37.71
2022-12-14T17:30:01.788Z,38.30
2022-12-14T17:32:31.927Z,38.99
2022-12-14T17:35:01.157Z,38.90
2022-12-14T17:37:36.438Z,38.81
2022-12-14T17:40:07.824Z,39.87
2022-12-14T17:42:36.075Z,37.93
2022-12-14T17:45:05.207Z,39.29
2022-12-14T17:47:34.234Z,38.09
2022-12-14T17:50:02.599Z,38.56
2022-12-14T17:52:35.706Z,38.41
2022-12-14T17:55:04.486Z,38.18
2022-12-14T17:57:33.773Z,38.65
2022-12-14T18:00:18.761Z,38.12
2022-12-14T18:02:48.081Z,38.41
2022-12-14T18:05:20.008Z,38.47
2022-12-14T18:07:50.473Z,38.80
2022-12-14T18:10:19.746Z,38.51
2022-12-14T18:12:49.671Z,37.89
2022-12-14T18:15:20.115Z,38.75
2022-12-14T18:17:49.477Z,38.12
2022-12-14T18:20:19.533Z,38.66
2022-12-14T18:22:50.130Z,38.47
2022-12-14T18:25:27.409Z,38.35
2022-12-14T18:27:56.265Z,39.02
2022-12-14T18:30:25.313Z,38.76
2022-12-14T18:32:54.107Z,38.81
2022-12-14T18:35:23.778Z,38.82
2022-12-14T18:37:54.398Z,39.39
2022-12-14T18:40:25.966Z,38.10
2022-12-14T18:42:54.971Z,38.16
2022-12-14T18:45:25.673Z,37.93
2022-12-14T18:47:55.568Z,38.22
2022-12-14T18:50:25.423Z,38.23
2022-12-14T18:52:59.637Z,38.79
2022-12-14T18:55:33.216Z,38.81
2022-12-14T18:58:05.964Z,39.15
2022-12-14T19:00:37.376Z,38.94
2022-12-14T19:03:06.402Z,38.67
2022-12-14T19:05:35.264Z,38.56
2022-12-14T19:08:07.598Z,39.33
2022-12-14T19:10:36.004Z,38.79
2022-12-14T19:13:04.731Z,39.12
2022-12-14T19:15:35.882Z,38.74
2022-12-14T19:18:05.407Z,39.22
2022-12-14T19:20:37.492Z,38.28
2022-12-14T19:23:07.472Z,38.87
2022-12-14T19:25:35.758Z,38.66
2022-12-14T19:28:30.949Z,38.51
2022-12-14T19:30:53.062Z,37.89
2022-12-14T19:33:23.536Z,38.04
2022-12-14T19:35:52.045Z,37.85
2022-12-14T19:38:22.215Z,37.57
2022-12-14T19:40:59.448Z,36.92
2022-12-14T19:43:29.181Z,37.45
2022-12-14T19:45:57.628Z,37.61
2022-12-14T19:48:27.965Z,37.63
2022-12-14T19:50:56.446Z,37.79
2022-12-14T19:53:26.633Z,37.51
2022-12-14T19:55:55.240Z,37.86
2022-12-14T19:58:25.547Z,38.02
2022-12-14T20:00:54.247Z,38.21
2022-12-14T20:03:23.837Z,38.01
2022-12-14T20:05:53.607Z,38.25
2022-12-14T20:08:22.872Z,38.15
2022-12-14T20:10:53.905Z,37.87
2022-12-14T20:13:23.458Z,37.91
2022-12-14T20:15:52.299Z,37.56
2022-12-14T20:18:21.016Z,37.71
2022-12-14T20:20:50.347Z,37.79
2022-12-14T20:23:19.440Z,37.62
2022-12-14T20:25:47.944Z,37.52
2022-12-14T20:28:18.271Z,37.56
2022-12-14T20:30:48.081Z,37.48
2022-12-14T20:33:16.810Z,37.60
2022-12-14T20:35:47.745Z,37.83
2022-12-14T20:38:16.290Z,36.49
2022-12-14T20:40:44.745Z,37.65
2022-12-14T20:43:13.460Z,37.65
2022-12-14T20:45:45.170Z,37.26
2022-12-14T20:48:14.506Z,37.54
2022-12-14T20:50:44.598Z,37.54
2022-12-14T20:53:19.917Z,37.69
2022-12-14T20:55:48.343Z,37.46
2022-12-14T20:58:17.344Z,37.11
2022-12-14T21:00:47.176Z,36.71
2022-12-14T21:03:15.996Z,36.38
2022-12-14T21:05:44.799Z,36.23
2022-12-14T21:08:15.860Z,36.11
2022-12-14T21:10:44.133Z,36.00
2022-12-14T21:13:11.578Z,36.16
2022-12-14T21:15:39.947Z,36.06
2022-12-14T21:18:09.776Z,35.92
2022-12-14T21:20:38.201Z,36.09
2022-12-14T21:23:06.813Z,36.04
2022-12-14T21:25:35.076Z,36.06
2022-12-14T21:28:03.615Z,36.19
2022-12-14T21:30:31.816Z,36.48
2022-12-14T21:33:00.382Z,36.47
2022-12-14T21:35:30.030Z,36.43
2022-12-14T21:37:58.620Z,36.37
2022-12-14T21:40:44.580Z,36.43
2022-12-14T21:43:13.572Z,36.45
2022-12-14T21:45:41.897Z,36.46
2022-12-14T21:48:10.590Z,36.55
2022-12-14T21:50:45.303Z,36.40
2022-12-14T21:53:13.878Z,36.45
2022-12-14T21:55:49.701Z,36.21
2022-12-14T21:58:17.668Z,36.29
2022-12-14T22:00:50.303Z,36.06
2022-12-14T22:03:23.189Z,36.23
2022-12-14T22:05:52.975Z,36.18
2022-12-14T22:08:21.539Z,35.87
2022-12-14T22:10:50.163Z,36.08
2022-12-14T22:13:19.306Z,36.00
2022-12-14T22:15:47.640Z,35.93
2022-12-14T22:18:18.815Z,35.87
2022-12-14T22:20:48.448Z,35.83
2022-12-14T22:23:20.910Z,35.84
2022-12-14T22:25:51.073Z,35.82
2022-12-14T22:28:20.070Z,35.86
2022-12-14T22:30:48.546Z,35.92
2022-12-14T22:33:17.342Z,35.81
2022-12-14T22:35:46.171Z,35.95
2022-12-14T22:38:14.908Z,35.85
2022-12-14T22:40:44.462Z,35.61
2022-12-14T22:43:13.120Z,35.93
2022-12-14T22:45:41.556Z,36.05
2022-12-14T22:48:10.208Z,36.07
2022-12-14T22:50:38.481Z,36.21
2022-12-14T22:53:07.117Z,36.20
2022-12-14T22:55:38.288Z,35.88
2022-12-14T22:58:10.255Z,35.97
2022-12-14T23:00:38.553Z,36.17
2022-12-14T23:03:07.797Z,36.21
2022-12-14T23:05:36.049Z,36.06
2022-12-14T23:08:04.867Z,36.00
2022-12-14T23:10:50.301Z,36.12
2022-12-14T23:13:37.784Z,35.95
2022-12-14T23:16:24.071Z,35.79
2022-12-14T23:19:10.188Z,35.90
2022-12-14T23:21:57.042Z,35.95
2022-12-14T23:24:43.139Z,36.19
2022-12-14T23:27:29.334Z,36.06
2022-12-14T23:30:16.987Z,35.98
2022-12-14T23:33:02.671Z,35.56
2022-12-14T23:35:48.958Z,35.68
2022-12-14T23:38:34.593Z,35.71
2022-12-14T23:41:20.649Z,35.44
2022-12-14T23:44:06.648Z,35.30
2022-12-14T23:46:54.039Z,34.89
2022-12-14T23:49:39.663Z,34.76
2022-12-14T23:52:25.751Z,34.78
2022-12-14T23:55:11.530Z,34.71
2022-12-14T23:57:57.683Z,34.53
